Airfield :
LOGIN :

Register | Disclaimer

   EN    FR    IT 

 










Legend :    VFR   Marginal VFR   IFR   Intensive IFR   Very Intensive IFR
Visi :
Ceiling :
>= 8 km
>= 3000ft
5 to 8 km
1000 to 3000 ft
1500m to 5 km
500 to 1000 ft
800 to 1500m
200 to 500 ft
< 800m
< 200 ft
Symbols :   Thunderstorms  Fog  Heavy snow  Heavy precipitations  Wind > 20 kt
SIGMETs :     Misc.  Thunderstorms  Icing  Turbulence  Mountain Waves  Volcanic Ashes






- Airport Elevation : 2077 ft
- IATA code : FMM


EDJA - Memmingen

CURRENT METAR :
  • 280520Z 01005KT 350V060 6000 OVC006 04/04 Q1017

EXPIRED METARs :
  • 280450Z 02004KT 6000 OVC006 04/04 Q1017
  • 280420Z AUTO 01004KT 6000 // OVC006/// 05/04 Q1016
  • 280350Z AUTO 01004KT 7000 // OVC007/// 05/04 Q1016
  • 280320Z AUTO 01005KT 8000 // OVC009/// 05/04 Q1016
  • 280250Z AUTO 36005KT 8000 // SCT009/// OVC011/// 05/04 Q1016
  • 280220Z AUTO 01004KT 7000 // OVC012/// 05/04 Q1016
  • 280150Z AUTO 04001KT 9999 // OVC012/// 05/04 Q1016
  • 280120Z AUTO 35003KT 9999 // BKN012/// OVC031/// 05/04 Q1016
  • 280050Z AUTO 36004KT 9999 // OVC011/// 05/04 Q1015

TAF TAF EDJA
Valid from the 28 at 06:00 until the 28 at 15:00 UTC


280500Z 2806/2815 03005KT 8000 OVC007
TEMPO 2806/2810 4000 BR BKN004
BECMG 2810/2813 BKN015



MET'MAP, your aeronautical weather chart ! - Copyright ORBIFLY December 2007 - Disclaimer

ORBIFLY MET'MAP TEAM :

Programming & Development : Alexandra Zaïnal
Original concept : Baudouin d'Aumeries
Technical & hardware support : Manuel Goepfert
Assistance : Marc-Olivier Méhu




SOURCES & CREDITS :

   NOAA